createdAt,value
2023-04-11T00:01:04.699Z,5.28
2023-04-11T00:04:06.575Z,5.27
2023-04-11T00:07:10.549Z,5.35
2023-04-11T00:10:12.323Z,5.28
2023-04-11T00:13:13.972Z,5.36
2023-04-11T00:16:18.549Z,5.27
2023-04-11T00:19:20.687Z,5.07
2023-04-11T00:22:22.234Z,5.27
2023-04-11T00:25:24.134Z,5.09
2023-04-11T00:28:27.329Z,4.93
2023-04-11T00:31:32.753Z,5.00
2023-04-11T00:34:34.320Z,4.89
2023-04-11T00:37:38.834Z,4.99
2023-04-11T00:40:40.656Z,4.95
2023-04-11T00:43:43.212Z,4.93
2023-04-11T00:46:46.391Z,4.84
2023-04-11T00:49:50.376Z,5.07
2023-04-11T00:52:54.479Z,4.98
2023-04-11T00:55:56.169Z,4.89
2023-04-11T00:58:58.420Z,5.03
2023-04-11T01:02:03.082Z,5.08
2023-04-11T01:05:05.183Z,5.01
2023-04-11T01:08:07.298Z,4.99
2023-04-11T01:11:09.632Z,5.06
2023-04-11T01:14:11.182Z,4.82
2023-04-11T01:17:15.630Z,4.88
2023-04-11T01:20:17.301Z,4.78
2023-04-11T01:23:22.948Z,4.76
2023-04-11T01:26:24.461Z,4.56
2023-04-11T01:29:27.259Z,4.56
2023-04-11T01:32:29.376Z,4.17
2023-04-11T01:35:31.550Z,3.96
2023-04-11T01:38:37.559Z,3.85
2023-04-11T01:41:40.268Z,3.95
2023-04-11T01:44:42.929Z,3.91
2023-04-11T01:47:44.712Z,3.96
2023-04-11T01:50:46.519Z,4.11
2023-04-11T01:53:49.462Z,4.02
2023-04-11T01:56:51.012Z,4.07
2023-04-11T01:59:53.568Z,3.61
2023-04-11T02:02:55.218Z,3.54
2023-04-11T02:06:00.703Z,3.79
2023-04-11T02:09:03.697Z,3.86
2023-04-11T02:12:05.535Z,3.86
2023-04-11T02:15:07.695Z,3.96
2023-04-11T02:18:09.710Z,3.64
2023-04-11T02:21:11.796Z,3.49
2023-04-11T02:24:14.892Z,3.53
2023-04-11T02:27:16.571Z,3.59
2023-04-11T02:30:19.450Z,3.65
2023-04-11T02:33:22.394Z,3.49
2023-04-11T02:36:24.979Z,3.57
2023-04-11T02:39:30.980Z,3.78
2023-04-11T02:42:32.515Z,3.94
2023-04-11T02:45:34.382Z,3.99
2023-04-11T02:48:36.192Z,4.08
2023-04-11T02:51:40.061Z,4.30
2023-04-11T02:54:43.028Z,4.27
2023-04-11T02:57:44.715Z,4.24
2023-04-11T03:00:47.472Z,4.24
2023-04-11T03:03:49.107Z,4.26
2023-04-11T03:06:50.842Z,4.36
2023-04-11T03:09:54.768Z,4.30
2023-04-11T03:12:56.333Z,4.13
2023-04-11T03:15:59.858Z,4.11
2023-04-11T03:19:05.205Z,4.13
2023-04-11T03:22:08.459Z,4.13
2023-04-11T03:25:11.831Z,3.82
2023-04-11T03:28:16.436Z,3.57
2023-04-11T03:31:18.022Z,3.81
2023-04-11T03:34:20.266Z,3.94
2023-04-11T03:37:23.560Z,3.95
2023-04-11T03:40:26.737Z,3.90
2023-04-11T03:43:33.440Z,3.99
2023-04-11T03:46:37.587Z,4.03
2023-04-11T03:49:41.270Z,4.11
2023-04-11T03:52:42.816Z,4.27
2023-04-11T03:55:46.042Z,4.24
2023-04-11T03:58:48.131Z,4.35
2023-04-11T04:01:49.743Z,4.39
2023-04-11T04:04:52.583Z,4.31
2023-04-11T04:07:56.059Z,4.28
2023-04-11T04:10:59.108Z,4.31
2023-04-11T04:14:01.817Z,4.44
2023-04-11T04:17:03.360Z,4.35
2023-04-11T04:20:05.396Z,4.46
2023-04-11T04:23:06.884Z,4.35
2023-04-11T04:26:09.802Z,4.42
2023-04-11T04:29:11.620Z,4.44
2023-04-11T04:32:14.378Z,4.57
2023-04-11T04:35:19.525Z,4.90
2023-04-11T04:38:21.461Z,5.74
2023-04-11T04:41:27.387Z,6.11
2023-04-11T04:44:31.792Z,6.58
2023-04-11T04:47:34.164Z,6.86
2023-04-11T04:50:40.506Z,7.15
2023-04-11T04:53:42.576Z,7.29
2023-04-11T04:56:49.480Z,7.28
2023-04-11T04:59:51.008Z,7.46
2023-04-11T05:02:52.813Z,7.27
2023-04-11T05:05:54.687Z,7.03
2023-04-11T05:08:57.015Z,6.65
2023-04-11T05:11:59.938Z,6.52
2023-04-11T05:15:01.530Z,6.18
2023-04-11T05:18:04.132Z,6.21
2023-04-11T05:21:08.692Z,6.19
2023-04-11T05:24:10.816Z,6.05
2023-04-11T05:27:13.714Z,6.25
2023-04-11T05:30:15.781Z,6.28
2023-04-11T05:33:17.636Z,6.28
2023-04-11T05:36:19.241Z,6.33
2023-04-11T05:39:21.832Z,6.37
2023-04-11T05:42:26.621Z,6.41
2023-04-11T05:45:28.184Z,6.46
2023-04-11T05:48:30.341Z,6.31
2023-04-11T05:51:32.986Z,6.27
2023-04-11T05:54:36.404Z,6.24
2023-04-11T05:57:39.506Z,6.28
2023-04-11T06:00:41.882Z,6.32
2023-04-11T06:03:43.585Z,6.36
2023-04-11T06:06:45.243Z,6.42
2023-04-11T06:09:47.782Z,6.45
2023-04-11T06:12:51.596Z,6.50
2023-04-11T06:15:56.561Z,6.52
2023-04-11T06:18:58.203Z,6.58
2023-04-11T06:22:00.822Z,6.58
2023-04-11T06:25:02.359Z,6.54
2023-04-11T06:28:09.051Z,6.51
2023-04-11T06:31:10.643Z,6.45
2023-04-11T06:34:13.416Z,6.34
2023-04-11T06:37:15.096Z,6.38
2023-04-11T06:40:18.094Z,6.35
2023-04-11T06:43:21.241Z,6.41
2023-04-11T06:46:23.346Z,6.62
2023-04-11T06:49:25.298Z,6.50
2023-04-11T06:52:28.258Z,6.43
2023-04-11T06:55:31.825Z,6.51
2023-04-11T06:58:34.784Z,6.52
2023-04-11T07:01:37.081Z,6.54
2023-04-11T07:04:40.663Z,6.64
2023-04-11T07:07:42.263Z,6.88
2023-04-11T07:10:45.753Z,6.87
2023-04-11T07:13:49.358Z,7.00
2023-04-11T07:16:51.153Z,7.14
2023-04-11T07:20:00.355Z,7.37
2023-04-11T07:23:02.440Z,7.57
2023-04-11T07:26:04.505Z,7.66
2023-04-11T07:29:13.100Z,7.98
2023-04-11T07:32:16.140Z,8.15
2023-04-11T07:35:19.670Z,8.15
2023-04-11T07:38:21.323Z,8.17
2023-04-11T07:41:23.884Z,8.22
2023-04-11T07:44:27.399Z,8.22
2023-04-11T07:47:29.272Z,8.10
2023-04-11T07:50:32.359Z,7.99
2023-04-11T07:53:33.900Z,8.03
2023-04-11T07:56:37.994Z,8.00
2023-04-11T07:59:41.103Z,7.84
2023-04-11T08:02:42.760Z,8.01
2023-04-11T08:05:46.176Z,7.90
2023-04-11T08:08:48.570Z,7.81
2023-04-11T08:11:51.554Z,7.84
2023-04-11T08:14:54.554Z,7.83
2023-04-11T08:17:57.157Z,7.72
2023-04-11T08:20:59.216Z,7.66
2023-04-11T08:24:00.810Z,7.72
2023-04-11T08:27:03.760Z,7.72
2023-04-11T08:30:08.333Z,7.79
2023-04-11T08:33:10.125Z,7.69
2023-04-11T08:36:12.132Z,7.68
2023-04-11T08:39:13.791Z,7.62
2023-04-11T08:42:23.986Z,7.66
2023-04-11T08:45:27.404Z,7.68
2023-04-11T08:48:29.879Z,7.65
2023-04-11T08:51:32.213Z,7.63
2023-04-11T08:54:36.257Z,7.60
2023-04-11T08:57:37.772Z,7.68
2023-04-11T09:00:41.235Z,7.84
2023-04-11T09:03:50.648Z,7.87
2023-04-11T09:06:58.389Z,7.87
2023-04-11T09:10:17.339Z,7.89
2023-04-11T09:13:20.161Z,7.92
2023-04-11T09:16:23.104Z,7.93
2023-04-11T09:19:26.387Z,8.02
2023-04-11T09:22:35.104Z,8.01
2023-04-11T09:25:43.775Z,8.09
2023-04-11T09:28:46.300Z,8.07
2023-04-11T09:31:50.729Z,8.13
2023-04-11T09:34:52.426Z,8.06
2023-04-11T09:37:57.477Z,8.10
2023-04-11T09:40:59.664Z,8.18
2023-04-11T09:44:02.004Z,8.18
2023-04-11T09:47:05.001Z,8.16
2023-04-11T09:50:07.229Z,8.14
2023-04-11T09:53:09.078Z,8.17
2023-04-11T09:56:12.310Z,8.19
2023-04-11T09:59:14.755Z,8.20
2023-04-11T10:02:17.756Z,8.18
2023-04-11T10:05:22.362Z,8.23
2023-04-11T10:08:27.972Z,8.11
2023-04-11T10:11:29.728Z,8.20
2023-04-11T10:14:44.686Z,8.19
2023-04-11T10:18:08.484Z,8.25
2023-04-11T10:21:42.444Z,8.15
2023-04-11T10:25:11.290Z,8.19
2023-04-11T10:28:29.090Z,8.16
2023-04-11T10:31:34.834Z,8.17
2023-04-11T10:34:37.999Z,8.19
2023-04-11T10:37:39.653Z,8.21
2023-04-11T10:41:13.927Z,8.23
2023-04-11T10:44:21.161Z,8.18
2023-04-11T10:47:23.107Z,8.13
2023-04-11T10:50:38.294Z,8.11
2023-04-11T10:53:39.894Z,8.08
2023-04-11T10:57:00.163Z,8.06
2023-04-11T11:03:13.943Z,8.06
2023-04-11T11:06:16.951Z,7.76
2023-04-11T11:09:20.630Z,7.25
2023-04-11T11:12:22.214Z,7.00
2023-04-11T11:15:23.987Z,6.88
2023-04-11T11:18:25.968Z,6.74
2023-04-11T11:21:32.722Z,6.77
2023-04-11T11:24:35.002Z,6.70
2023-04-11T11:27:36.516Z,6.72
2023-04-11T11:30:49.257Z,6.86
2023-04-11T11:33:50.873Z,6.75
2023-04-11T11:36:54.483Z,6.76
2023-04-11T11:39:56.374Z,6.74
2023-04-11T11:42:58.856Z,6.74
2023-04-11T11:46:08.666Z,6.77
2023-04-11T11:49:10.772Z,6.75
2023-04-11T11:52:30.171Z,6.62
2023-04-11T11:55:33.265Z,6.67
2023-04-11T11:58:42.669Z,6.72
2023-04-11T12:01:46.072Z,6.57
2023-04-11T12:04:48.040Z,6.48
2023-04-11T12:07:53.612Z,6.44
2023-04-11T12:10:56.514Z,6.32
2023-04-11T12:13:58.496Z,6.21
2023-04-11T12:17:00.244Z,6.24
2023-04-11T12:20:03.536Z,6.36
2023-04-11T12:23:05.287Z,6.39
2023-04-11T12:26:08.278Z,6.35
2023-04-11T12:29:10.389Z,6.30
2023-04-11T12:32:14.589Z,6.44
2023-04-11T12:35:16.111Z,6.55
2023-04-11T12:38:18.193Z,6.57
2023-04-11T12:41:32.062Z,6.73
2023-04-11T12:44:34.289Z,6.76
2023-04-11T12:47:36.074Z,6.93
2023-04-11T12:50:40.891Z,7.02
2023-04-11T12:53:42.410Z,7.13
2023-04-11T12:56:47.312Z,7.17
2023-04-11T12:59:48.842Z,7.30
2023-04-11T13:02:50.775Z,7.28
2023-04-11T13:05:52.830Z,7.36
2023-04-11T13:08:54.896Z,7.33
2023-04-11T13:11:59.012Z,7.35
2023-04-11T13:15:00.714Z,7.28
2023-04-11T13:18:02.668Z,7.52
2023-04-11T13:21:04.531Z,7.42
2023-04-11T13:24:06.195Z,7.39
2023-04-11T13:27:10.407Z,7.36
2023-04-11T13:30:12.477Z,7.25
2023-04-11T13:33:14.075Z,7.24
2023-04-11T13:36:16.150Z,7.16
2023-04-11T13:39:20.205Z,7.28
2023-04-11T13:42:23.177Z,7.22
2023-04-11T13:45:25.625Z,7.30
2023-04-11T13:48:29.913Z,7.37
2023-04-11T13:51:31.499Z,7.48
2023-04-11T13:54:37.437Z,7.58
2023-04-11T13:57:40.337Z,7.54
2023-04-11T14:00:46.239Z,7.45
2023-04-11T14:03:48.053Z,7.46
2023-04-11T14:06:49.715Z,7.47
2023-04-11T14:09:54.645Z,7.42
2023-04-11T14:12:57.626Z,7.59
2023-04-11T14:16:07.905Z,7.60
2023-04-11T14:19:10.949Z,7.62
2023-04-11T14:22:12.587Z,7.69
2023-04-11T14:25:15.616Z,7.83
2023-04-11T14:28:19.598Z,7.79
2023-04-11T14:31:21.299Z,7.93
2023-04-11T14:34:24.879Z,7.97
2023-04-11T14:37:26.545Z,8.17
2023-04-11T14:40:32.693Z,8.09
2023-04-11T14:43:36.091Z,8.17
2023-04-11T14:46:37.895Z,8.15
2023-04-11T14:49:40.801Z,8.05
2023-04-11T14:52:43.169Z,8.10
2023-04-11T14:55:44.961Z,8.20
2023-04-11T14:58:50.949Z,8.21
2023-04-11T15:01:53.780Z,8.29
2023-04-11T15:04:55.424Z,8.34
2023-04-11T15:07:57.479Z,8.41
2023-04-11T15:11:00.971Z,8.48
2023-04-11T15:14:04.067Z,8.47
2023-04-11T15:17:05.832Z,8.62
2023-04-11T15:20:08.465Z,8.51
2023-04-11T15:23:13.176Z,8.63
2023-04-11T15:26:14.768Z,8.31
2023-04-11T15:29:22.484Z,8.26
2023-04-11T15:32:26.781Z,8.37
2023-04-11T15:35:28.602Z,8.35
2023-04-11T15:38:31.083Z,8.35
2023-04-11T15:41:33.141Z,8.44
2023-04-11T15:44:36.355Z,8.55
2023-04-11T15:47:37.961Z,8.57
2023-04-11T15:50:40.192Z,8.35
2023-04-11T15:53:43.036Z,8.21
2023-04-11T15:56:46.004Z,8.25
2023-04-11T15:59:49.217Z,8.18
2023-04-11T16:02:51.290Z,8.22
2023-04-11T16:05:54.439Z,8.21
2023-04-11T16:08:56.127Z,8.14
2023-04-11T16:11:57.645Z,8.04
2023-04-11T16:15:02.588Z,7.94
2023-04-11T16:18:06.277Z,7.88
2023-04-11T16:21:12.012Z,8.01
2023-04-11T16:24:13.530Z,8.51
2023-04-11T16:27:15.109Z,8.78
2023-04-11T16:30:18.340Z,8.81
2023-04-11T16:33:19.911Z,8.36
2023-04-11T16:36:22.009Z,8.20
2023-04-11T16:39:23.951Z,8.04
2023-04-11T16:42:25.565Z,8.60
2023-04-11T16:45:31.268Z,8.87
2023-04-11T16:48:36.167Z,9.03
2023-04-11T16:51:38.170Z,9.12
2023-04-11T16:54:39.735Z,9.34
2023-04-11T16:57:41.547Z,9.33
2023-04-11T17:00:45.152Z,9.28
2023-04-11T17:03:47.298Z,8.96
2023-04-11T17:06:49.195Z,8.79
2023-04-11T17:09:50.922Z,8.76
2023-04-11T17:12:52.656Z,8.78
2023-04-11T17:15:55.636Z,8.68
2023-04-11T17:18:59.810Z,8.48
2023-04-11T17:22:01.418Z,8.39
2023-04-11T17:25:03.573Z,8.24
2023-04-11T17:28:05.319Z,8.20
2023-04-11T17:31:13.687Z,8.00
2023-04-11T17:34:15.876Z,7.98
2023-04-11T17:37:17.565Z,7.93
2023-04-11T17:40:20.965Z,8.01
2023-04-11T17:43:22.685Z,8.04
2023-04-11T17:46:26.474Z,8.03
2023-04-11T17:49:28.158Z,8.00
2023-04-11T17:52:29.776Z,7.87
2023-04-11T17:55:33.639Z,7.78
2023-04-11T17:58:35.305Z,7.87
2023-04-11T18:01:39.502Z,7.77
2023-04-11T18:04:41.259Z,7.74
2023-04-11T18:07:46.935Z,7.77
2023-04-11T18:10:49.152Z,7.90
2023-04-11T18:13:51.212Z,7.69
2023-04-11T18:16:54.382Z,6.83
2023-04-11T18:19:58.385Z,6.61
2023-04-11T18:23:00.121Z,6.11
2023-04-11T18:26:01.809Z,6.21
2023-04-11T18:29:03.341Z,6.03
2023-04-11T18:32:07.691Z,5.81
2023-04-11T18:35:09.746Z,5.83
2023-04-11T18:38:13.777Z,5.66
2023-04-11T18:41:16.438Z,5.65
2023-04-11T18:44:18.058Z,5.21
2023-04-11T18:47:21.460Z,5.14
2023-04-11T18:50:23.137Z,5.08
2023-04-11T18:53:25.425Z,4.94
2023-04-11T18:56:27.727Z,4.90
2023-04-11T18:59:36.851Z,5.01
2023-04-11T19:02:42.417Z,5.03
2023-04-11T19:05:45.249Z,5.15
2023-04-11T19:08:51.372Z,5.20
2023-04-11T19:11:53.629Z,5.21
2023-04-11T19:14:55.798Z,5.18
2023-04-11T19:18:00.350Z,5.31
2023-04-11T19:21:04.699Z,5.22
2023-04-11T19:24:06.503Z,5.24
2023-04-11T19:27:08.894Z,5.28
2023-04-11T19:30:12.864Z,5.33
2023-04-11T19:33:18.474Z,5.38
2023-04-11T19:36:23.101Z,5.46
2023-04-11T19:39:25.692Z,5.61
2023-04-11T19:42:29.373Z,5.72
2023-04-11T19:45:33.169Z,5.74
2023-04-11T19:48:37.288Z,5.68
2023-04-11T19:51:39.517Z,5.69
2023-04-11T19:54:42.336Z,5.56
2023-04-11T19:57:44.244Z,5.51
2023-04-11T20:00:48.260Z,5.52
2023-04-11T20:03:53.782Z,5.48
2023-04-11T20:06:56.482Z,5.45
2023-04-11T20:09:58.664Z,5.50
2023-04-11T20:13:00.987Z,5.57
2023-04-11T20:16:03.778Z,5.63
2023-04-11T20:19:20.588Z,5.72
2023-04-11T20:22:25.252Z,5.76
2023-04-11T20:25:28.441Z,5.90
2023-04-11T20:28:30.426Z,5.84
2023-04-11T20:31:32.145Z,5.90
2023-04-11T20:34:36.595Z,5.94
2023-04-11T20:37:38.597Z,5.89
2023-04-11T20:40:42.433Z,5.96
2023-04-11T20:43:44.176Z,6.02
2023-04-11T20:46:46.479Z,6.01
2023-04-11T20:49:53.755Z,5.95
2023-04-11T20:52:55.625Z,5.95
2023-04-11T20:55:57.143Z,5.90
2023-04-11T20:59:00.550Z,5.90
2023-04-11T21:02:02.287Z,5.89
2023-04-11T21:05:05.964Z,5.89
2023-04-11T21:08:08.083Z,5.79
2023-04-11T21:11:09.625Z,5.59
2023-04-11T21:14:11.153Z,5.79
2023-04-11T21:17:13.731Z,5.46
2023-04-11T21:20:19.064Z,5.53
2023-04-11T21:23:20.698Z,5.67
2023-04-11T21:26:22.287Z,5.67
2023-04-11T21:29:26.043Z,5.55
2023-04-11T21:32:27.679Z,5.33
2023-04-11T21:35:32.244Z,5.23
2023-04-11T21:38:34.032Z,5.17
2023-04-11T21:41:35.878Z,5.37
2023-04-11T21:44:37.491Z,5.51
2023-04-11T21:47:39.283Z,5.52
2023-04-11T21:50:43.490Z,5.39
2023-04-11T21:53:45.845Z,5.61
2023-04-11T21:56:47.819Z,5.66
2023-04-11T21:59:49.345Z,5.65
2023-04-11T22:02:53.507Z,5.75
2023-04-11T22:05:57.036Z,5.77
2023-04-11T22:09:00.381Z,5.71
2023-04-11T22:12:01.924Z,5.81
2023-04-11T22:15:03.828Z,5.70
2023-04-11T22:18:08.513Z,5.73
2023-04-11T22:21:11.494Z,5.65
2023-04-11T22:24:13.074Z,5.57
2023-04-11T22:27:18.481Z,5.58
2023-04-11T22:30:20.039Z,5.55
2023-04-11T22:33:23.325Z,5.55
2023-04-11T22:36:26.548Z,5.39
2023-04-11T22:39:28.103Z,5.51
2023-04-11T22:42:29.793Z,5.45
2023-04-11T22:45:32.146Z,5.48
2023-04-11T22:48:33.734Z,5.49
2023-04-11T22:51:37.067Z,5.42
2023-04-11T22:54:38.621Z,5.28
2023-04-11T22:57:40.339Z,5.15
2023-04-11T23:00:45.026Z,5.22
2023-04-11T23:03:46.671Z,5.11
2023-04-11T23:06:50.970Z,5.15
2023-04-11T23:09:53.106Z,5.10
2023-04-11T23:12:54.686Z,5.12
2023-04-11T23:15:56.522Z,5.01
2023-04-11T23:18:58.049Z,5.04
2023-04-11T23:22:01.040Z,4.92
2023-04-11T23:25:02.713Z,4.95
2023-04-11T23:28:05.877Z,4.76
2023-04-11T23:31:18.754Z,4.90
2023-04-11T23:34:20.342Z,4.87
2023-04-11T23:37:23.487Z,4.42
2023-04-11T23:40:26.824Z,4.51
2023-04-11T23:43:28.365Z,4.57
2023-04-11T23:46:33.889Z,4.52
2023-04-11T23:49:35.812Z,4.50
2023-04-11T23:52:39.187Z,4.24
2023-04-11T23:55:42.266Z,4.00
2023-04-11T23:58:44.244Z,3.76
